Flight Track Log - Related Links

Times and Time Zones

All times are in EDT time to prevent confusion due to time zone crossing. See the SKW5561 flight status page for this flight to view local times or setup timezone preferences in your user account.

Time Position Orientation Groundspeed Altitude Reporting Facility
EDT Latitude Longitude Course Direction KTS MPH feet Rate Location/Type
Sun 11:14:23 AM 42.0167 -87.9667 346° North 171 197 2,700  Level Chicago TRACON
Sun 11:15:17 AM 42.0667 -88.0000 334° Northwest 214 246 4,000 1,803 Climbing Chicago TRACON
Sun 11:17:26 AM 42.2297 -88.0283 353° North 314 361 8,200 2,073 Climbing Chicago Center
Sun 11:18:28 AM 42.3206 -88.0397 355° North 327 376 10,600 2,195 Climbing Chicago Center
Sun 11:19:00 AM 42.3471 -88.4512 346° North  Level Estimated
Sun 11:19:29 AM 42.4019 -88.1078 328° Northwest 336 387 12,700  Level Chicago Center
Sun 11:20:31 AM 42.5014 -88.1164 356° North 356 410 14,800 1,984 Climbing Chicago Center
Sun 11:21:33 AM 42.6056 -88.1244 357° North 373 429 16,800 1,984 Climbing Chicago Center
Sun 11:22:35 AM 42.6808 -88.2056 322° Northwest 351 404 18,900 1,756 Climbing Chicago Center
Sun 11:23:36 AM 42.7344 -88.3181 303° West 352 405 20,400 1,415 Climbing Chicago Center
Sun 11:24:38 AM 42.7906 -88.4394 302° West 373 429 21,800 1,839 Climbing Chicago Center
Sun 11:25:40 AM 42.8597 -88.5869 303° West 383 441 24,200 1,645 Climbing Chicago Center
Sun 11:26:42 AM 42.9325 -88.7008 311° West 398 458 25,200 -1,632 Climbing Chicago Center
Sun 11:27:56 AM 42.5025 -89.4097 231° Southwest 444 511 20,500 1,220 Descending Chicago Center
Sun 11:28:45 AM 43.0847 -88.9447 30° Northeast 418 481 27,700 -1,279 Climbing Chicago Center
Sun 11:28:57 AM 42.4811 -89.2539 201° Southwest 432 497 19,200 1,161 Descending Chicago Center
Sun 11:29:47 AM 43.1650 -89.0731 11° North 436 502 28,900 -1,355 Climbing Chicago Center
Sun 11:29:59 AM 42.4606 -89.1017 182° South 421 484 17,800 984 Descending Chicago Center
Sun 11:30:48 AM 43.2456 -89.2028 355° North 443 510 29,900 7,081 Climbing Chicago Center
Sun 11:31:50 AM 43.3275 -89.3350 310° West 451 519 30,900 968 Climbing Chicago Center
Sun 11:32:52 AM 43.4100 -89.4703 310° West 457 526 31,900 1,016 Climbing Chicago Center
Sun 11:33:54 AM 43.4914 -89.6047 310° West 457 526 33,000 780 Climbing Chicago Center
Sun 11:34:55 AM 43.5911 -89.7692 310° West 464 534 33,500 488 Climbing Chicago Center
Sun 11:35:57 AM 43.6778 -89.9117 310° West 480 552 34,000 581 Climbing Chicago Center
Sun 11:36:59 AM 43.7664 -90.0564 310° West 491 565 34,700 774 Climbing Chicago Center
Sun 11:38:01 AM 43.8511 -90.1994 309° West 486 559 35,600 990 Climbing Chicago Center
Sun 11:38:36 AM 43.9036 -90.2847 311° West 486 559 36,300 1,113 Climbing Minneapolis Center
Sun 11:39:38 AM 43.9867 -90.4244 310° West 475 547 37,400 829 Climbing Minneapolis Center
Sun 11:40:39 AM 44.0700 -90.5694 309° West 460 529 38,000 293 Climbing Minneapolis Center
Sun 11:41:41 AM 44.1511 -90.7044 310° West 460 529 38,000  Level Minneapolis Center
Sun 11:42:43 AM 44.2308 -90.8397 309° West 458 527 38,000  Level Minneapolis Center
Sun 11:43:44 AM 44.3083 -90.9733 309° West 450 518 38,000  Level Minneapolis Center
Sun 11:44:46 AM 44.3908 -91.1172 309° West 448 516 38,000  Level Minneapolis Center
Sun 11:45:48 AM 44.4692 -91.2503 310° West 446 513 38,000  Level Minneapolis Center
Sun 11:46:49 AM 44.5617 -91.4108 309° West 444 511 38,000  Level Minneapolis Center
Sun 11:47:51 AM 44.6392 -91.5464 309° West 446 513 38,000  Level Minneapolis Center
Sun 11:48:53 AM 44.7164 -91.6842 308° West 449 517 38,000  Level Minneapolis Center
Sun 11:49:54 AM 44.7961 -91.8233 309° West 455 524 38,000  Level Minneapolis Center
Sun 11:50:56 AM 44.8747 -91.9639 308° West 458 527 38,000  Level Minneapolis Center
Sun 11:51:58 AM 44.9497 -92.1050 307° West 455 524 38,000  Level Minneapolis Center
Sun 11:52:59 AM 45.0317 -92.2461 309° West 462 532 38,000  Level Minneapolis Center
Sun 11:54:01 AM 45.1239 -92.4144 308° West 456 525 38,000  Level Minneapolis Center
Sun 11:55:03 AM 45.2000 -92.5531 308° West 451 519 38,000  Level Minneapolis Center
Sun 11:56:05 AM 45.2756 -92.6906 308° West 446 513 38,000  Level Minneapolis Center
Sun 11:57:06 AM 45.3506 -92.8281 308° West 445 512 38,000  Level Minneapolis Center
Sun 11:58:08 AM 45.4256 -92.9642 308° West 441 507 38,000  Level Minneapolis Center
Sun 11:59:10 AM 45.4997 -93.1036 307° West 443 510 38,000  Level Minneapolis Center
Sun 12:00:11 PM 45.5906 -93.2708 308° West 446 513 38,000  Level Minneapolis Center
Sun 12:01:13 PM 45.6653 -93.4089 308° West 443 510 38,000  Level Minneapolis Center
Sun 12:02:15 PM 45.7394 -93.5503 307° West 445 512 38,000  Level Minneapolis Center
Sun 12:03:17 PM 45.8144 -93.6922 307° West 448 516 38,000  Level Minneapolis Center
Sun 12:04:18 PM 45.8878 -93.8319 307° West 443 510 38,000  Level Minneapolis Center
Sun 12:05:20 PM 45.9594 -93.9694 307° West 434 499 38,000  Level Minneapolis Center
Sun 12:06:22 PM 46.0456 -94.1339 307° West 430 495 38,000  Level Minneapolis Center
Sun 12:07:24 PM 46.1164 -94.2697 307° West 427 491 38,000  Level Minneapolis Center
Sun 12:08:26 PM 46.1856 -94.4064 306° West 424 488 38,000  Level Minneapolis Center
Sun 12:09:27 PM 46.2497 -94.5311 307° West 420 483 38,000  Level Minneapolis Center
Sun 12:10:29 PM 46.3192 -94.6658 307° West 418 481 38,000  Level Minneapolis Center
Sun 12:11:31 PM 46.3992 -94.8239 306° West 409 471 38,000  Level Minneapolis Center
Sun 12:12:33 PM 46.4658 -94.9567 306° West 407 468 38,000  Level Minneapolis Center
Sun 12:13:35 PM 46.5325 -95.0886 306° West 406 467 38,000  Level Minneapolis Center
Sun 12:14:36 PM 46.5975 -95.2192 306° West 401 461 38,000  Level Minneapolis Center
Sun 12:15:38 PM 46.6614 -95.3483 306° West 396 456 38,000  Level Minneapolis Center
Sun 12:16:40 PM 46.7264 -95.4753 307° West 393 452 38,000  Level Minneapolis Center
Sun 12:17:42 PM 46.7889 -95.6039 305° West 391 450 38,000  Level Minneapolis Center
Sun 12:18:47 PM 46.8622 -95.7547 305° West 384 442 38,000  Level Minneapolis Center
Sun 12:19:49 PM 46.9236 -95.8786 306° West 379 436 38,000  Level Minneapolis Center
Sun 12:20:50 PM 46.9839 -96.0022 306° West 377 434 38,000  Level Minneapolis Center
Sun 12:21:52 PM 47.0431 -96.1236 306° West 371 427 38,000  Level Minneapolis Center
Sun 12:22:54 PM 47.1006 -96.2444 305° West 365 420 38,000  Level Minneapolis Center
Sun 12:23:56 PM 47.1694 -96.3875 305° West 360 414 38,000  Level Minneapolis Center
Sun 12:24:58 PM 47.2269 -96.5069 305° West 359 413 38,000  Level Minneapolis Center
Sun 12:26:00 PM 47.2850 -96.6267 306° West 362 417 38,000  Level Minneapolis Center
Sun 12:27:01 PM 47.3433 -96.7478 305° West 364 419 38,000  Level Minneapolis Center
Sun 12:28:03 PM 47.4006 -96.8686 305° West 362 417 38,000  Level Minneapolis Center
Sun 12:29:05 PM 47.4569 -96.9911 304° West 362 417 38,000  Level Minneapolis Center
Sun 12:30:07 PM 47.5267 -97.1358 306° West 362 417 38,000  Level Minneapolis Center
Sun 12:31:09 PM 47.5831 -97.2575 305° West 362 417 38,000  Level Minneapolis Center
Sun 12:32:11 PM 47.6389 -97.3806 304° West 363 418 38,000  Level Minneapolis Center
Sun 12:33:13 PM 47.6947 -97.5025 304° West 362 417 38,000  Level Minneapolis Center
Sun 12:34:14 PM 47.7503 -97.6250 304° West 363 418 38,000  Level Minneapolis Center
Sun 12:35:16 PM 47.8178 -97.7717 304° West 362 417 38,000  Level Minneapolis Center
Sun 12:36:18 PM 47.8731 -97.8942 304° West 362 417 38,000  Level Minneapolis Center
Sun 12:37:20 PM 47.9294 -98.0178 304° West 363 418 38,000  Level Minneapolis Center
Sun 12:38:22 PM 47.9858 -98.1428 304° West 365 420 38,000  Level Minneapolis Center
Sun 12:39:24 PM 48.0403 -98.2664 303° West 362 417 38,000  Level Minneapolis Center
Sun 12:40:26 PM 48.1075 -98.4147 304° West 361 415 38,000  Level Minneapolis Center
Sun 12:41:28 PM 48.1622 -98.5361 304° West 357 411 38,000  Level Minneapolis Center
Sun 12:42:30 PM 48.2164 -98.6594 303° West 356 410 38,000  Level Minneapolis Center
Sun 12:43:32 PM 48.2697 -98.7825 303° West 354 407 38,000  Level Minneapolis Center
Sun 12:44:34 PM 48.3228 -98.9042 303° West 352 405 38,000  Level Minneapolis Center
Sun 12:45:36 PM 48.3750 -99.0236 303° West 348 400 38,000  Level Minneapolis Center
Sun 12:46:38 PM 48.4356 -99.1675 302° West 343 395 38,000  Level Minneapolis Center
Sun 12:47:40 PM 48.4861 -99.2867 303° West 340 391 38,000  Level Minneapolis Center
Sun 12:48:42 PM 48.5378 -99.4053 303° West 340 391 38,000  Level Minneapolis Center
Sun 12:49:45 PM 48.5892 -99.5244 303° West 339 390 38,000  Level Minneapolis Center
Sun 12:50:47 PM 48.6408 -99.6461 303° West 343 395 38,000  Level Minneapolis Center
Sun 12:51:49 PM 48.6931 -99.7681 303° West 345 397 38,000  Level Minneapolis Center
Sun 12:52:51 PM 48.7564 -99.9167 303° West 349 402 38,000  Level Minneapolis Center
Sun 12:53:53 PM 48.8067 -100.0397 302° West 347 399 38,000  Level Minneapolis Center
Sun 12:54:55 PM 48.8578 -100.1597 303° West 342 394 38,000  Level Minneapolis Center
Sun 12:55:57 PM 48.9072 -100.2792 302° West 337 388 38,000  Level Minneapolis Center
Sun 12:56:59 PM 48.9564 -100.3947 303° West 330 380 38,000  Level Minneapolis Center
Sun 12:58:01 PM 49.0039 -100.5125 302° West 327 376 38,000  Level Minneapolis Center
Sun 12:58:47 PM 49.0333 -100.6333 290° West 330 380 38,000  Level Winnipeg Center
Sun 12:59:47 PM 49.0833 -100.7500 303° West 330 380 38,000  Level Winnipeg Center
Sun 01:00:47 PM 49.1333 -100.8833 300° West 340 391 38,000  Level Winnipeg Center
Sun 01:01:47 PM 49.1833 -100.9833 307° West 340 391 38,000  Level Winnipeg Center
Sun 01:02:47 PM 49.2333 -101.1167 300° West 350 403 38,000  Level Winnipeg Center
Sun 01:03:47 PM 49.2833 -101.2500 300° West 350 403 38,000  Level Winnipeg Center
Sun 01:04:47 PM 49.3500 -101.3833 308° West 350 403 38,000  Level Winnipeg Center
Sun 01:05:47 PM 49.3833 -101.5167 291° West 360 414 38,000  Level Winnipeg Center
Sun 01:06:47 PM 49.4500 -101.6500 308° West 360 414 38,000  Level Winnipeg Center
Sun 01:07:47 PM 49.5000 -101.7833 300° West 360 414 38,000  Level Winnipeg Center
Sun 01:08:47 PM 49.5333 -101.8833 297° West 360 414 38,000  Level Winnipeg Center
Sun 01:09:47 PM 49.6000 -102.0333 304° West 350 403 38,000  Level Winnipeg Center
Sun 01:10:47 PM 49.6500 -102.1667 300° West 350 403 38,000  Level Winnipeg Center
Sun 01:11:47 PM 49.6833 -102.2667 297° West 340 391 38,000  Level Winnipeg Center
Sun 01:12:47 PM 49.7500 -102.4000 308° West 330 380 38,000  Level Winnipeg Center
Sun 01:13:47 PM 49.8000 -102.5167 304° West 330 380 38,000  Level Winnipeg Center
Sun 01:14:47 PM 49.8333 -102.6500 291° West 320 368 38,000  Level Winnipeg Center
Sun 01:15:47 PM 49.8833 -102.7667 304° West 320 368 38,000  Level Winnipeg Center
Sun 01:16:47 PM 49.9333 -102.9000 300° West 320 368 38,000  Level Winnipeg Center
Sun 01:17:47 PM 49.9667 -103.0000 297° West 320 368 38,000  Level Winnipeg Center
Sun 01:18:47 PM 50.0167 -103.1167 304° West 320 368 38,000  Level Winnipeg Center
Sun 01:19:47 PM 50.0667 -103.2500 300° West 320 368 38,000  Level Winnipeg Center
Sun 01:20:47 PM 50.1000 -103.3667 294° West 330 380 38,000  Level Winnipeg Center
Sun 01:21:47 PM 50.1500 -103.5000 300° West 330 380 38,000  Level Winnipeg Center
Sun 01:22:47 PM 50.1833 -103.6167 294° West 330 380 38,000  Level Winnipeg Center
Sun 01:23:47 PM 50.2500 -103.7500 308° West 340 391 38,000  Level Winnipeg Center
Sun 01:24:47 PM 50.2833 -103.8833 291° West 340 391 38,000  Level Winnipeg Center
Sun 01:25:47 PM 50.3333 -104.0000 304° West 340 391 38,000  Level Winnipeg Center
Sun 01:26:47 PM 50.3833 -104.1333 300° West 340 391 38,000  Level Winnipeg Center
Sun 01:27:47 PM 50.4167 -104.2500 294° West 340 391 38,000  Level Winnipeg Center
Sun 01:28:47 PM 50.4833 -104.3833 308° West 340 391 38,000  Level Winnipeg Center
Sun 01:29:47 PM 50.5167 -104.5333 289° West 340 391 38,000  Level Winnipeg Center
Sun 01:30:47 PM 50.5667 -104.6333 308° West 340 391 38,000  Level Winnipeg Center
Sun 01:31:47 PM 50.6000 -104.7833 289° West 340 391 38,000  Level Winnipeg Center
Sun 01:32:47 PM 50.6500 -104.9167 301° West 330 380 38,000  Level Winnipeg Center
Sun 01:33:47 PM 50.7000 -105.0333 304° West 330 380 38,000  Level Winnipeg Center
Sun 01:34:47 PM 50.7500 -105.1833 298° West 330 380 38,000  Level Winnipeg Center
Sun 01:35:47 PM 50.7833 -105.2833 298° West 330 380 38,000  Level Winnipeg Center
Sun 01:36:47 PM 50.8167 -105.4333 289° West 330 380 38,000  Level Winnipeg Center
Sun 01:37:47 PM 50.8667 -105.5500 304° West 330 380 38,000  Level Winnipeg Center
Sun 01:38:47 PM 50.9333 -105.6667 312° West 330 380 38,000  Level Winnipeg Center
Sun 01:39:47 PM 50.9667 -105.8000 292° West 330 380 38,000  Level Winnipeg Center
Sun 01:40:47 PM 51.0000 -105.9167 294° West 330 380 38,000  Level Winnipeg Center
Sun 01:41:47 PM 51.0500 -106.0667 298° West 330 380 38,000  Level Winnipeg Center
Sun 01:42:47 PM 51.0833 -106.1667 298° West 330 380 38,000  Level Winnipeg Center
Sun 01:43:47 PM 51.1500 -106.3167 305° West 330 380 38,000  Level Winnipeg Center
Sun 01:44:47 PM 51.1833 -106.4333 295° West 330 380 38,000  Level Winnipeg Center
Sun 01:45:47 PM 51.2167 -106.5500 295° West 330 380 38,000  Level Winnipeg Center
Sun 01:46:47 PM 51.2667 -106.7000 298° West 330 380 38,000  Level Winnipeg Center
Sun 01:47:47 PM 51.3000 -106.8167 295° West 330 380 38,000  Level Winnipeg Center
Sun 01:48:47 PM 51.3667 -106.9667 305° West 330 380 38,000  Level Winnipeg Center
Sun 01:49:47 PM 51.4000 -107.0833 295° West 330 380 38,000  Level Winnipeg Center
Sun 01:50:47 PM 51.4333 -107.2167 292° West 330 380 38,000  Level Winnipeg Center
Sun 01:51:47 PM 51.4833 -107.3333 305° West 330 380 38,000  Level Winnipeg Center
Sun 01:52:47 PM 51.5333 -107.4833 298° West 330 380 38,000  Level Winnipeg Center
Sun 01:53:47 PM 51.5667 -107.6000 295° West 330 380 38,000  Level Winnipeg Center
Sun 01:54:47 PM 51.6167 -107.7500 298° West 330 380 38,000  Level Winnipeg Center
Sun 01:55:47 PM 51.6500 -107.8667 295° West 330 380 38,000  Level Winnipeg Center
Sun 01:56:36 PM 51.6833 -107.9667 298° West 330 380 38,000  Level Edmonton Center
Sun 01:57:36 PM 51.7167 -108.0667 298° West 330 380 38,000  Level Edmonton Center
Sun 01:58:36 PM 51.7667 -108.2167 298° West 330 380 38,000  Level Edmonton Center
Sun 01:59:36 PM 51.8167 -108.3500 301° West 330 380 38,000  Level Edmonton Center
Sun 02:00:36 PM 51.8333 -108.4833 281° West 330 380 38,000  Level Edmonton Center
Sun 02:01:36 PM 51.8833 -108.6333 298° West 330 380 38,000  Level Edmonton Center
Sun 02:02:36 PM 51.9333 -108.7500 305° West 330 380 38,000  Level Edmonton Center
Sun 02:03:36 PM 51.9833 -108.8833 301° West 330 380 38,000  Level Edmonton Center
Sun 02:04:36 PM 52.0000 -109.0333 280° West 330 380 38,000  Level Edmonton Center
Sun 02:05:36 PM 52.0500 -109.1333 309° West 330 380 38,000  Level Edmonton Center
Sun 02:06:36 PM 52.1000 -109.2833 299° West 330 380 38,000  Level Edmonton Center
Sun 02:07:36 PM 52.1333 -109.4167 292° West 330 380 38,000  Level Edmonton Center
Sun 02:08:36 PM 52.1667 -109.5667 290° West 340 391 38,000  Level Edmonton Center
Sun 02:09:36 PM 52.2167 -109.7167 299° West 330 380 38,000  Level Edmonton Center
Sun 02:10:36 PM 52.2667 -109.8500 302° West 330 380 38,000  Level Edmonton Center
Sun 02:11:36 PM 52.3000 -109.9667 295° West 330 380 38,000  Level Edmonton Center
Sun 02:12:36 PM 52.3333 -110.1167 290° West 330 380 38,000  Level Edmonton Center
Sun 02:13:36 PM 52.3833 -110.2500 302° West 330 380 38,000  Level Edmonton Center
Sun 02:14:36 PM 52.4000 -110.4000 280° West 330 380 38,000  Level Edmonton Center
Sun 02:15:36 PM 52.4500 -110.5333 302° West 320 368 38,000  Level Edmonton Center
Sun 02:16:36 PM 52.5000 -110.6667 302° West 330 380 38,000  Level Edmonton Center
Sun 02:17:36 PM 52.5333 -110.8000 292° West 330 380 38,000  Level Edmonton Center
Sun 02:18:36 PM 52.5667 -110.9500 290° West 330 380 38,000  Level Edmonton Center
Sun 02:19:36 PM 52.6167 -111.0667 305° West 330 380 38,000  Level Edmonton Center
Sun 02:20:36 PM 52.6500 -111.2167 290° West 330 380 38,000  Level Edmonton Center
Sun 02:21:36 PM 52.6833 -111.3500 292° West 330 380 38,000 -600 Level Edmonton Center
Sun 02:22:36 PM 52.7167 -111.5000 290° West 320 368 36,800 -2,150 Descending Edmonton Center
Sun 02:23:36 PM 52.7667 -111.6167 305° West 330 380 33,700 -3,150 Descending Edmonton Center
Sun 02:24:36 PM 52.8000 -111.7667 290° West 340 391 30,500 -3,100 Descending Edmonton Center
Sun 02:25:36 PM 52.8500 -111.9167 299° West 340 391 27,500 -3,000 Descending Edmonton Center
Sun 02:26:36 PM 52.8833 -112.0667 290° West 340 391 24,500 -3,150 Descending Edmonton Center
Sun 02:27:36 PM 52.9167 -112.2000 293° West 340 391 21,200 -3,150 Descending Edmonton Center
Sun 02:28:36 PM 52.9500 -112.3500 290° West 330 380 18,200 -2,850 Descending Edmonton Center
Sun 02:29:36 PM 53.0000 -112.5000 299° West 330 380 15,500 -2,250 Descending Edmonton Center
Sun 02:30:36 PM 53.0167 -112.6167 283° West 300 345 13,700 -1,750 Descending Edmonton Center
Sun 02:31:36 PM 53.0333 -112.7333 283° West 270 311 12,000 -1,800 Descending Edmonton Center
Sun 02:32:36 PM 53.0500 -112.8833 281° West 260 299 10,100 -1,800 Descending Edmonton Center
Sun 02:33:36 PM 53.0667 -112.9667 288° West 260 299 8,400 -1,050 Descending Edmonton Center
Sun 02:34:36 PM 53.1167 -113.0667 310° West 220 253 8,000 -200 Descending Edmonton Center
Sun 02:35:36 PM 53.1667 -113.1333 321° Northwest 210 242 8,000  Level Edmonton Center
Sun 02:36:36 PM 53.1833 -113.2167 288° West 210 242 8,000  Level Edmonton Center
Sun 02:37:36 PM 53.2333 -113.2833 321° Northwest 210 242 8,000  Level Edmonton Center
Sun 02:38:36 PM 53.2667 -113.3500 310° West 200 230 8,000  Level Edmonton Center
Sun 02:39:36 PM 53.3167 -113.4167 321° Northwest 200 230 8,000 -450 Level Edmonton Center
Sun 02:40:36 PM 53.3500 -113.4833 310° West 200 230 7,100 -1,300 Descending Edmonton Center
Sun 02:41:36 PM 53.3833 -113.5667 304° West 210 242 5,400 -1,050 Descending Edmonton Center
Sun 02:42:36 PM 53.4333 -113.6333 322° Northwest 230 265 5,000 -450 Descending Edmonton Center
Sun 02:43:36 PM 53.4167 -113.7167 251° West 170 196 4,500 -400 Descending Edmonton Center
Sun 02:44:36 PM 53.3833 -113.7667 222° Southwest 140 161 4,200 -200 Descending Edmonton Center
Sun 02:45:36 PM 53.3500 -113.7333 149° Southeast 150 173 4,100 -350 Descending Edmonton Center
Sun 02:46:36 PM 53.3167 -113.7000 149° Southeast 130 150 3,500 -650 Descending Edmonton Center
Sun 02:47:36 PM 53.3000 -113.6333 113° Southeast 130 150 2,800 -600 Descending Edmonton Center
Sun 02:48:36 PM 53.2833 -113.6000 130° Southeast 130 150 2,300 -500 Descending Edmonton Center

Login

Don't have an account? Register now (free) for customized features, flight alerts, and more!